sensor_id;sensor_type;location;lat;lon;timestamp;pressure;altitude;pressure_sealevel;temperature;humidity
22755;BME280;11544;42.020;23.094;2022-10-31T00:02:05;97600.13;;;11.50;79.05
22755;BME280;11544;42.020;23.094;2022-10-31T00:04:31;97600.25;;;11.45;79.18
22755;BME280;11544;42.020;23.094;2022-10-31T00:06:56;97598.00;;;11.61;78.72
22755;BME280;11544;42.020;23.094;2022-10-31T00:09:22;97595.66;;;11.78;77.88
22755;BME280;11544;42.020;23.094;2022-10-31T00:11:48;97601.56;;;11.58;78.30
22755;BME280;11544;42.020;23.094;2022-10-31T00:14:14;97599.97;;;11.28;79.58
22755;BME280;11544;42.020;23.094;2022-10-31T00:16:39;97594.59;;;11.32;81.32
22755;BME280;11544;42.020;23.094;2022-10-31T00:19:07;97600.25;;;11.45;79.94
22755;BME280;11544;42.020;23.094;2022-10-31T00:21:34;97605.84;;;11.61;78.54
22755;BME280;11544;42.020;23.094;2022-10-31T00:24:00;97602.94;;;11.43;79.73
22755;BME280;11544;42.020;23.094;2022-10-31T00:26:27;97611.69;;;11.14;81.68
22755;BME280;11544;42.020;23.094;2022-10-31T00:28:53;97608.53;;;11.03;82.85
22755;BME280;11544;42.020;23.094;2022-10-31T00:31:20;97608.78;;;11.50;80.99
22755;BME280;11544;42.020;23.094;2022-10-31T00:33:45;97607.84;;;11.26;79.77
22755;BME280;11544;42.020;23.094;2022-10-31T00:36:17;97613.31;;;11.18;80.86
22755;BME280;11544;42.020;23.094;2022-10-31T00:38:44;97610.19;;;11.34;79.98
22755;BME280;11544;42.020;23.094;2022-10-31T00:41:11;97611.00;;;11.08;81.06
22755;BME280;11544;42.020;23.094;2022-10-31T00:43:40;97607.44;;;11.38;81.57
22755;BME280;11544;42.020;23.094;2022-10-31T00:46:05;97604.31;;;11.55;79.90
22755;BME280;11544;42.020;23.094;2022-10-31T00:48:31;97603.66;;;11.74;78.42
22755;BME280;11544;42.020;23.094;2022-10-31T00:50:57;97605.38;;;11.21;79.81
22755;BME280;11544;42.020;23.094;2022-10-31T00:53:23;97613.00;;;10.71;82.27
22755;BME280;11544;42.020;23.094;2022-10-31T00:55:49;97607.16;;;11.19;82.11
22755;BME280;11544;42.020;23.094;2022-10-31T00:58:14;97600.22;;;11.20;80.96
22755;BME280;11544;42.020;23.094;2022-10-31T01:00:40;97586.56;;;11.38;80.25
22755;BME280;11544;42.020;23.094;2022-10-31T01:03:06;97599.31;;;11.21;81.08
22755;BME280;11544;42.020;23.094;2022-10-31T01:05:32;97590.66;;;11.45;79.97
22755;BME280;11544;42.020;23.094;2022-10-31T01:07:58;97587.97;;;11.49;79.61
22755;BME280;11544;42.020;23.094;2022-10-31T01:10:26;97592.44;;;11.18;80.48
22755;BME280;11544;42.020;23.094;2022-10-31T01:12:51;97594.28;;;10.87;83.27
22755;BME280;11544;42.020;23.094;2022-10-31T01:15:22;97610.75;;;10.59;84.55
22755;BME280;11544;42.020;23.094;2022-10-31T01:17:48;97620.81;;;10.71;85.18
22755;BME280;11544;42.020;23.094;2022-10-31T01:20:15;97624.09;;;10.78;85.25
22755;BME280;11544;42.020;23.094;2022-10-31T01:22:41;97620.13;;;10.65;86.00
22755;BME280;11544;42.020;23.094;2022-10-31T01:25:08;97623.47;;;10.40;87.31
22755;BME280;11544;42.020;23.094;2022-10-31T01:27:34;97631.16;;;10.74;87.00
22755;BME280;11544;42.020;23.094;2022-10-31T01:30:00;97627.69;;;10.74;86.47
22755;BME280;11544;42.020;23.094;2022-10-31T01:32:26;97618.19;;;10.73;86.21
22755;BME280;11544;42.020;23.094;2022-10-31T01:34:54;97618.69;;;10.84;86.67
22755;BME280;11544;42.020;23.094;2022-10-31T01:37:20;97619.06;;;10.72;86.46
22755;BME280;11544;42.020;23.094;2022-10-31T01:39:48;97622.81;;;10.32;88.36
22755;BME280;11544;42.020;23.094;2022-10-31T01:42:19;97630.94;;;10.52;88.55
22755;BME280;11544;42.020;23.094;2022-10-31T01:44:55;97630.13;;;10.80;88.99
22755;BME280;11544;42.020;23.094;2022-10-31T01:49:57;97634.50;;;10.15;90.17
22755;BME280;11544;42.020;23.094;2022-10-31T01:52:31;97637.47;;;10.36;90.85
22755;BME280;11544;42.020;23.094;2022-10-31T01:55:01;97637.22;;;10.45;90.37
22755;BME280;11544;42.020;23.094;2022-10-31T01:57:31;97646.22;;;9.99;90.89
22755;BME280;11544;42.020;23.094;2022-10-31T02:00:02;97641.06;;;10.63;90.12
22755;BME280;11544;42.020;23.094;2022-10-31T02:02:39;97628.91;;;10.62;88.76
22755;BME280;11544;42.020;23.094;2022-10-31T02:05:09;97632.81;;;10.47;89.47
22755;BME280;11544;42.020;23.094;2022-10-31T02:08:41;97628.88;;;10.64;89.46
22755;BME280;11544;42.020;23.094;2022-10-31T02:10:49;97637.47;;;10.36;90.17
22755;BME280;11544;42.020;23.094;2022-10-31T02:13:16;97624.38;;;10.69;89.30
22755;BME280;11544;42.020;23.094;2022-10-31T02:15:48;97630.00;;;10.53;89.58
22755;BME280;11544;42.020;23.094;2022-10-31T02:18:14;97635.91;;;10.30;91.00
22755;BME280;11544;42.020;23.094;2022-10-31T02:34:36;97623.78;;;10.28;92.07
22755;BME280;11544;42.020;23.094;2022-10-31T02:37:12;97633.50;;;10.54;91.92
22755;BME280;11544;42.020;23.094;2022-10-31T02:39:47;97625.81;;;10.49;89.80
22755;BME280;11544;42.020;23.094;2022-10-31T02:45:21;97627.00;;;10.37;91.71
22755;BME280;11544;42.020;23.094;2022-10-31T02:47:50;97621.59;;;10.44;90.79
22755;BME280;11544;42.020;23.094;2022-10-31T02:50:26;97632.78;;;10.16;90.78
22755;BME280;11544;42.020;23.094;2022-10-31T02:52:54;97632.03;;;10.44;90.90
22755;BME280;11544;42.020;23.094;2022-10-31T02:57:48;97628.16;;;10.26;90.71
22755;BME280;11544;42.020;23.094;2022-10-31T03:00:15;97622.63;;;10.40;91.46
22755;BME280;11544;42.020;23.094;2022-10-31T03:07:59;97633.75;;;10.45;91.51
22755;BME280;11544;42.020;23.094;2022-10-31T03:10:55;97642.75;;;10.00;92.88
22755;BME280;11544;42.020;23.094;2022-10-31T03:16:41;97635.44;;;10.46;92.01
22755;BME280;11544;42.020;23.094;2022-10-31T03:19:22;97638.50;;;10.30;90.89
22755;BME280;11544;42.020;23.094;2022-10-31T03:21:57;97650.69;;;9.95;92.75
22755;BME280;11544;42.020;23.094;2022-10-31T03:24:28;97635.81;;;9.99;93.89
22755;BME280;11544;42.020;23.094;2022-10-31T03:26:59;97653.06;;;10.03;94.42
22755;BME280;11544;42.020;23.094;2022-10-31T03:29:28;97646.94;;;10.38;93.31
22755;BME280;11544;42.020;23.094;2022-10-31T03:34:38;97640.59;;;10.49;91.13
22755;BME280;11544;42.020;23.094;2022-10-31T03:37:09;97659.88;;;10.09;92.14
22755;BME280;11544;42.020;23.094;2022-10-31T03:39:39;97659.47;;;9.91;92.99
22755;BME280;11544;42.020;23.094;2022-10-31T03:42:13;97663.03;;;10.20;93.09
22755;BME280;11544;42.020;23.094;2022-10-31T03:44:43;97665.59;;;10.23;91.56
22755;BME280;11544;42.020;23.094;2022-10-31T03:47:12;97668.13;;;9.92;93.54
22755;BME280;11544;42.020;23.094;2022-10-31T03:49:38;97667.94;;;10.00;93.56
22755;BME280;11544;42.020;23.094;2022-10-31T03:54:36;97662.03;;;9.93;95.44
22755;BME280;11544;42.020;23.094;2022-10-31T03:59:46;97666.69;;;10.14;95.41
22755;BME280;11544;42.020;23.094;2022-10-31T04:02:22;97676.97;;;10.19;94.37
22755;BME280;11544;42.020;23.094;2022-10-31T04:04:49;97678.69;;;10.20;92.85
22755;BME280;11544;42.020;23.094;2022-10-31T04:07:15;97677.28;;;9.72;94.70
22755;BME280;11544;42.020;23.094;2022-10-31T04:09:45;97670.50;;;9.67;96.02
22755;BME280;11544;42.020;23.094;2022-10-31T04:12:14;97683.66;;;9.61;97.09
22755;BME280;11544;42.020;23.094;2022-10-31T04:15:02;97688.94;;;9.58;96.86
22755;BME280;11544;42.020;23.094;2022-10-31T04:17:31;97686.31;;;9.93;95.72
22755;BME280;11544;42.020;23.094;2022-10-31T04:19:59;97687.69;;;9.74;96.46
22755;BME280;11544;42.020;23.094;2022-10-31T04:22:27;97683.72;;;9.59;96.87
22755;BME280;11544;42.020;23.094;2022-10-31T04:24:52;97694.34;;;9.50;97.64
22755;BME280;11544;42.020;23.094;2022-10-31T04:27:18;97678.41;;;9.96;95.66
22755;BME280;11544;42.020;23.094;2022-10-31T04:29:44;97685.50;;;9.57;96.25
22755;BME280;11544;42.020;23.094;2022-10-31T04:32:11;97684.13;;;9.78;97.26
22755;BME280;11544;42.020;23.094;2022-10-31T04:34:38;97682.56;;;10.04;94.40
22755;BME280;11544;42.020;23.094;2022-10-31T04:37:04;97679.44;;;9.91;95.79
22755;BME280;11544;42.020;23.094;2022-10-31T04:39:31;97691.44;;;9.62;96.23
22755;BME280;11544;42.020;23.094;2022-10-31T04:42:19;97693.50;;;9.48;97.55
22755;BME280;11544;42.020;23.094;2022-10-31T04:44:45;97698.91;;;9.40;97.59
22755;BME280;11544;42.020;23.094;2022-10-31T04:47:11;97690.75;;;9.90;96.87
22755;BME280;11544;42.020;23.094;2022-10-31T04:49:36;97693.84;;;9.70;96.30
22755;BME280;11544;42.020;23.094;2022-10-31T04:52:02;97684.03;;;9.81;96.59
22755;BME280;11544;42.020;23.094;2022-10-31T04:54:28;97697.47;;;9.64;96.66
22755;BME280;11544;42.020;23.094;2022-10-31T04:57:17;97706.31;;;9.57;98.09
22755;BME280;11544;42.020;23.094;2022-10-31T04:59:43;97697.41;;;9.66;97.67
22755;BME280;11544;42.020;23.094;2022-10-31T05:02:09;97716.88;;;9.49;98.19
22755;BME280;11544;42.020;23.094;2022-10-31T05:04:43;97697.00;;;10.17;96.50
22755;BME280;11544;42.020;23.094;2022-10-31T05:07:09;97701.66;;;9.70;96.80
22755;BME280;11544;42.020;23.094;2022-10-31T05:09:35;97706.53;;;9.84;97.09
22755;BME280;11544;42.020;23.094;2022-10-31T05:12:01;97710.78;;;9.88;97.06
22755;BME280;11544;42.020;23.094;2022-10-31T05:14:46;97715.56;;;9.69;96.89
22755;BME280;11544;42.020;23.094;2022-10-31T05:17:31;97716.94;;;9.84;97.22
22755;BME280;11544;42.020;23.094;2022-10-31T05:20:17;97708.34;;;10.16;94.37
22755;BME280;11544;42.020;23.094;2022-10-31T05:23:01;97706.69;;;10.12;94.24
22755;BME280;11544;42.020;23.094;2022-10-31T05:25:28;97709.75;;;10.29;94.21
22755;BME280;11544;42.020;23.094;2022-10-31T05:27:59;97698.69;;;9.85;94.64
22755;BME280;11544;42.020;23.094;2022-10-31T05:30:31;97710.22;;;10.09;95.47
22755;BME280;11544;42.020;23.094;2022-10-31T05:32:58;97716.56;;;9.99;95.37
22755;BME280;11544;42.020;23.094;2022-10-31T05:35:50;97703.69;;;9.93;95.45
22755;BME280;11544;42.020;23.094;2022-10-31T05:38:54;97725.28;;;9.96;96.62
22755;BME280;11544;42.020;23.094;2022-10-31T05:41:25;97707.69;;;11.61;91.96
22755;BME280;11544;42.020;23.094;2022-10-31T05:43:58;97702.34;;;12.44;82.34
22755;BME280;11544;42.020;23.094;2022-10-31T05:46:27;97683.91;;;12.72;78.94
22755;BME280;11544;42.020;23.094;2022-10-31T05:49:24;97717.03;;;11.96;81.36
22755;BME280;11544;42.020;23.094;2022-10-31T05:51:55;97696.28;;;12.67;78.07
22755;BME280;11544;42.020;23.094;2022-10-31T05:57:18;97698.66;;;11.43;82.45
22755;BME280;11544;42.020;23.094;2022-10-31T05:59:45;97720.34;;;12.01;84.16
22755;BME280;11544;42.020;23.094;2022-10-31T06:02:16;97711.84;;;12.21;81.72
22755;BME280;11544;42.020;23.094;2022-10-31T06:05:01;97717.34;;;12.64;81.14
22755;BME280;11544;42.020;23.094;2022-10-31T06:07:27;97720.09;;;11.81;82.02
22755;BME280;11544;42.020;23.094;2022-10-31T06:09:52;97713.19;;;11.52;83.08
22755;BME280;11544;42.020;23.094;2022-10-31T06:12:20;97716.78;;;12.79;87.49
22755;BME280;11544;42.020;23.094;2022-10-31T06:15:05;97713.34;;;12.77;81.27
22755;BME280;11544;42.020;23.094;2022-10-31T06:17:31;97725.34;;;12.59;82.64
22755;BME280;11544;42.020;23.094;2022-10-31T06:20:19;97727.63;;;12.43;81.59
22755;BME280;11544;42.020;23.094;2022-10-31T06:22:54;97717.31;;;13.58;79.25
22755;BME280;11544;42.020;23.094;2022-10-31T06:25:20;97729.50;;;13.59;80.85
22755;BME280;11544;42.020;23.094;2022-10-31T06:27:48;97731.88;;;13.65;81.44
22755;BME280;11544;42.020;23.094;2022-10-31T06:30:14;97738.84;;;12.96;78.51
22755;BME280;11544;42.020;23.094;2022-10-31T06:32:44;97745.50;;;11.76;81.23
22755;BME280;11544;42.020;23.094;2022-10-31T06:35:11;97747.59;;;11.93;85.36
22755;BME280;11544;42.020;23.094;2022-10-31T06:37:37;97742.94;;;12.79;82.90
22755;BME280;11544;42.020;23.094;2022-10-31T06:40:16;97761.03;;;11.52;84.33
22755;BME280;11544;42.020;23.094;2022-10-31T06:43:16;97751.81;;;13.22;87.77
22755;BME280;11544;42.020;23.094;2022-10-31T06:45:44;97734.25;;;13.26;82.02
22755;BME280;11544;42.020;23.094;2022-10-31T06:48:28;97739.31;;;11.78;82.08
22755;BME280;11544;42.020;23.094;2022-10-31T06:51:17;97753.59;;;11.38;84.36
22755;BME280;11544;42.020;23.094;2022-10-31T06:53:43;97748.41;;;12.48;85.00
22755;BME280;11544;42.020;23.094;2022-10-31T06:56:11;97748.56;;;12.68;81.63
22755;BME280;11544;42.020;23.094;2022-10-31T06:58:43;97740.22;;;12.57;82.14
22755;BME280;11544;42.020;23.094;2022-10-31T07:01:10;97738.53;;;12.80;81.12
22755;BME280;11544;42.020;23.094;2022-10-31T07:03:36;97737.53;;;12.59;82.88
22755;BME280;11544;42.020;23.094;2022-10-31T07:06:02;97741.06;;;12.33;81.10
22755;BME280;11544;42.020;23.094;2022-10-31T07:08:28;97737.91;;;12.73;80.45
22755;BME280;11544;42.020;23.094;2022-10-31T07:10:56;97736.22;;;12.47;78.96
22755;BME280;11544;42.020;23.094;2022-10-31T07:13:24;97743.09;;;12.75;79.96
22755;BME280;11544;42.020;23.094;2022-10-31T07:16:01;97733.31;;;13.50;79.72
22755;BME280;11544;42.020;23.094;2022-10-31T07:18:27;97737.25;;;13.15;79.43
22755;BME280;11544;42.020;23.094;2022-10-31T07:20:53;97736.88;;;13.02;80.10
22755;BME280;11544;42.020;23.094;2022-10-31T07:23:20;97743.38;;;12.42;80.19
22755;BME280;11544;42.020;23.094;2022-10-31T07:25:57;97745.72;;;12.49;79.89
22755;BME280;11544;42.020;23.094;2022-10-31T07:28:30;97732.09;;;12.90;80.38
22755;BME280;11544;42.020;23.094;2022-10-31T07:30:57;97730.97;;;12.72;81.30
22755;BME280;11544;42.020;23.094;2022-10-31T07:33:24;97736.06;;;12.77;79.33
22755;BME280;11544;42.020;23.094;2022-10-31T07:36:12;97729.66;;;13.09;78.95
22755;BME280;11544;42.020;23.094;2022-10-31T07:38:42;97730.75;;;13.72;80.42
22755;BME280;11544;42.020;23.094;2022-10-31T07:41:07;97728.00;;;13.75;76.83
22755;BME280;11544;42.020;23.094;2022-10-31T07:43:38;97733.34;;;13.72;77.71
22755;BME280;11544;42.020;23.094;2022-10-31T07:46:41;97727.16;;;14.38;76.15
22755;BME280;11544;42.020;23.094;2022-10-31T07:49:28;97731.09;;;14.48;75.14
22755;BME280;11544;42.020;23.094;2022-10-31T07:52:35;97723.34;;;13.60;75.69
22755;BME280;11544;42.020;23.094;2022-10-31T07:55:32;97721.47;;;14.49;72.40
22755;BME280;11544;42.020;23.094;2022-10-31T07:58:04;97719.25;;;14.99;71.20
22755;BME280;11544;42.020;23.094;2022-10-31T08:00:31;97716.09;;;15.31;70.07
22755;BME280;11544;42.020;23.094;2022-10-31T08:03:02;97715.28;;;14.91;69.24
22755;BME280;11544;42.020;23.094;2022-10-31T08:06:01;97719.91;;;14.02;71.24
22755;BME280;11544;42.020;23.094;2022-10-31T08:08:46;97712.25;;;15.38;69.44
22755;BME280;11544;42.020;23.094;2022-10-31T08:11:12;97710.75;;;15.32;70.19
22755;BME280;11544;42.020;23.094;2022-10-31T08:13:38;97707.28;;;15.32;65.82
22755;BME280;11544;42.020;23.094;2022-10-31T08:16:04;97695.16;;;15.65;66.04
22755;BME280;11544;42.020;23.094;2022-10-31T08:18:36;97700.03;;;15.18;64.97
22755;BME280;11544;42.020;23.094;2022-10-31T08:21:07;97696.63;;;15.16;66.70
22755;BME280;11544;42.020;23.094;2022-10-31T08:23:38;97686.97;;;15.35;65.22
22755;BME280;11544;42.020;23.094;2022-10-31T08:26:04;97679.09;;;16.25;63.19
22755;BME280;11544;42.020;23.094;2022-10-31T08:28:32;97688.84;;;16.23;62.30
22755;BME280;11544;42.020;23.094;2022-10-31T08:30:59;97674.53;;;17.29;59.92
22755;BME280;11544;42.020;23.094;2022-10-31T08:33:40;97682.88;;;17.53;58.61
22755;BME280;11544;42.020;23.094;2022-10-31T08:36:19;97680.84;;;16.93;57.61
22755;BME280;11544;42.020;23.094;2022-10-31T08:38:53;97668.94;;;17.97;57.10
22755;BME280;11544;42.020;23.094;2022-10-31T08:41:19;97678.00;;;18.82;54.28
22755;BME280;11544;42.020;23.094;2022-10-31T08:43:48;97673.50;;;18.54;55.87
22755;BME280;11544;42.020;23.094;2022-10-31T08:46:19;97669.19;;;18.67;54.06
22755;BME280;11544;42.020;23.094;2022-10-31T08:48:52;97664.03;;;18.94;53.29
22755;BME280;11544;42.020;23.094;2022-10-31T08:51:24;97662.06;;;18.83;52.41
22755;BME280;11544;42.020;23.094;2022-10-31T08:53:54;97659.34;;;19.41;52.54
22755;BME280;11544;42.020;23.094;2022-10-31T08:56:32;97647.19;;;19.65;49.26
22755;BME280;11544;42.020;23.094;2022-10-31T08:58:59;97654.63;;;19.32;49.91
22755;BME280;11544;42.020;23.094;2022-10-31T09:01:55;97648.34;;;19.20;50.56
22755;BME280;11544;42.020;23.094;2022-10-31T09:22:18;97628.97;;;20.79;48.58
22755;BME280;11544;42.020;23.094;2022-10-31T09:24:51;97622.38;;;20.85;47.01
22755;BME280;11544;42.020;23.094;2022-10-31T09:27:28;97631.50;;;20.93;47.09
22755;BME280;11544;42.020;23.094;2022-10-31T09:30:00;97622.91;;;21.40;46.70
22755;BME280;11544;42.020;23.094;2022-10-31T09:32:35;97622.38;;;21.47;46.42
22755;BME280;11544;42.020;23.094;2022-10-31T09:35:02;97616.72;;;21.39;45.35
22755;BME280;11544;42.020;23.094;2022-10-31T09:37:35;97612.63;;;21.83;44.98
22755;BME280;11544;42.020;23.094;2022-10-31T09:40:07;97610.25;;;22.27;44.19
22755;BME280;11544;42.020;23.094;2022-10-31T09:50:52;97600.53;;;22.50;43.86
22755;BME280;11544;42.020;23.094;2022-10-31T09:56:14;97586.38;;;22.72;43.26
22755;BME280;11544;42.020;23.094;2022-10-31T09:58:49;97588.69;;;22.76;42.91
22755;BME280;11544;42.020;23.094;2022-10-31T10:04:09;97575.28;;;23.00;42.29
22755;BME280;11544;42.020;23.094;2022-10-31T10:07:19;97564.88;;;23.09;42.31
22755;BME280;11544;42.020;23.094;2022-10-31T10:21:57;97542.34;;;23.24;40.57
22755;BME280;11544;42.020;23.094;2022-10-31T10:32:43;97539.84;;;22.89;41.22
22755;BME280;11544;42.020;23.094;2022-10-31T10:35:14;97531.88;;;23.11;42.39
22755;BME280;11544;42.020;23.094;2022-10-31T10:37:44;97524.69;;;23.34;40.87
22755;BME280;11544;42.020;23.094;2022-10-31T10:40:21;97519.69;;;23.41;40.38
22755;BME280;11544;42.020;23.094;2022-10-31T10:43:19;97520.56;;;23.41;40.94
22755;BME280;11544;42.020;23.094;2022-10-31T10:54:42;97507.78;;;23.56;41.46
22755;BME280;11544;42.020;23.094;2022-10-31T10:57:43;97505.56;;;23.61;40.73
22755;BME280;11544;42.020;23.094;2022-10-31T11:00:19;97485.72;;;23.65;40.11
22755;BME280;11544;42.020;23.094;2022-10-31T11:02:45;97491.59;;;23.80;40.34
22755;BME280;11544;42.020;23.094;2022-10-31T11:05:28;97487.72;;;23.73;40.02
22755;BME280;11544;42.020;23.094;2022-10-31T11:07:55;97488.50;;;23.64;40.21
22755;BME280;11544;42.020;23.094;2022-10-31T11:10:21;97499.34;;;23.51;40.52
22755;BME280;11544;42.020;23.094;2022-10-31T11:13:01;97477.75;;;23.65;40.52
22755;BME280;11544;42.020;23.094;2022-10-31T11:15:32;97479.19;;;23.70;40.42
22755;BME280;11544;42.020;23.094;2022-10-31T11:18:01;97478.91;;;23.73;40.37
22755;BME280;11544;42.020;23.094;2022-10-31T11:20:35;97487.72;;;24.15;39.98
22755;BME280;11544;42.020;23.094;2022-10-31T11:23:20;97464.75;;;23.72;39.50
22755;BME280;11544;42.020;23.094;2022-10-31T11:25:51;97469.16;;;23.62;39.75
22755;BME280;11544;42.020;23.094;2022-10-31T11:28:24;97461.91;;;23.85;40.74
22755;BME280;11544;42.020;23.094;2022-10-31T11:30:51;97462.72;;;24.06;40.97
22755;BME280;11544;42.020;23.094;2022-10-31T11:33:30;97456.44;;;24.07;39.89
22755;BME280;11544;42.020;23.094;2022-10-31T11:36:02;97448.63;;;24.16;39.59
22755;BME280;11544;42.020;23.094;2022-10-31T11:38:35;97447.94;;;24.54;39.28
22755;BME280;11544;42.020;23.094;2022-10-31T11:41:14;97452.44;;;24.23;38.65
22755;BME280;11544;42.020;23.094;2022-10-31T11:43:56;97435.84;;;24.40;37.98
22755;BME280;11544;42.020;23.094;2022-10-31T11:46:35;97432.41;;;24.59;38.26
22755;BME280;11544;42.020;23.094;2022-10-31T11:49:04;97430.81;;;24.47;37.86
22755;BME280;11544;42.020;23.094;2022-10-31T11:51:34;97422.69;;;24.48;38.02
22755;BME280;11544;42.020;23.094;2022-10-31T11:54:02;97421.19;;;24.65;37.34
22755;BME280;11544;42.020;23.094;2022-10-31T11:56:42;97422.19;;;24.64;37.54
22755;BME280;11544;42.020;23.094;2022-10-31T11:59:21;97424.44;;;24.79;37.21
22755;BME280;11544;42.020;23.094;2022-10-31T12:05:05;97410.38;;;24.57;37.80
22755;BME280;11544;42.020;23.094;2022-10-31T12:07:39;97425.69;;;24.75;36.27
22755;BME280;11544;42.020;23.094;2022-10-31T12:10:11;97412.34;;;24.65;36.63
22755;BME280;11544;42.020;23.094;2022-10-31T12:15:50;97409.69;;;24.65;36.96
22755;BME280;11544;42.020;23.094;2022-10-31T12:18:54;97413.06;;;24.67;37.10
22755;BME280;11544;42.020;23.094;2022-10-31T12:27:32;97401.59;;;24.76;36.66
22755;BME280;11544;42.020;23.094;2022-10-31T12:35:24;97392.75;;;24.85;35.48
22755;BME280;11544;42.020;23.094;2022-10-31T12:40:55;97386.72;;;24.93;34.56
22755;BME280;11544;42.020;23.094;2022-10-31T12:44:00;97391.03;;;24.75;34.85
22755;BME280;11544;42.020;23.094;2022-10-31T12:49:46;97384.34;;;25.00;34.56
22755;BME280;11544;42.020;23.094;2022-10-31T12:52:48;97385.59;;;24.96;34.51
22755;BME280;11544;42.020;23.094;2022-10-31T12:58:31;97384.88;;;24.84;34.66
22755;BME280;11544;42.020;23.094;2022-10-31T13:01:25;97385.16;;;24.81;34.86
22755;BME280;11544;42.020;23.094;2022-10-31T13:06:47;97398.03;;;24.66;35.46
22755;BME280;11544;42.020;23.094;2022-10-31T13:09:19;97390.03;;;24.66;34.86
22755;BME280;11544;42.020;23.094;2022-10-31T13:11:51;97392.03;;;24.64;35.36
22755;BME280;11544;42.020;23.094;2022-10-31T13:14:39;97391.94;;;24.44;35.98
22755;BME280;11544;42.020;23.094;2022-10-31T13:17:21;97392.84;;;24.55;34.63
22755;BME280;11544;42.020;23.094;2022-10-31T13:19:49;97392.97;;;24.53;35.45
22755;BME280;11544;42.020;23.094;2022-10-31T13:22:23;97398.91;;;24.66;34.93
22755;BME280;11544;42.020;23.094;2022-10-31T13:30:17;97395.34;;;24.46;35.07
22755;BME280;11544;42.020;23.094;2022-10-31T13:38:56;97382.75;;;24.58;34.62
22755;BME280;11544;42.020;23.094;2022-10-31T13:44:24;97388.19;;;24.47;35.11
22755;BME280;11544;42.020;23.094;2022-10-31T13:46:57;97379.03;;;24.40;34.71
22755;BME280;11544;42.020;23.094;2022-10-31T13:54:41;97398.63;;;24.19;35.29
22755;BME280;11544;42.020;23.094;2022-10-31T13:57:44;97390.75;;;24.18;35.14
22755;BME280;11544;42.020;23.094;2022-10-31T14:00:25;97390.47;;;24.21;34.96
22755;BME280;11544;42.020;23.094;2022-10-31T14:02:55;97396.59;;;24.12;35.40
22755;BME280;11544;42.020;23.094;2022-10-31T14:05:29;97393.56;;;23.85;36.05
22755;BME280;11544;42.020;23.094;2022-10-31T14:08:01;97393.78;;;24.03;35.70
22755;BME280;11544;42.020;23.094;2022-10-31T14:10:32;97396.84;;;23.99;36.13
22755;BME280;11544;42.020;23.094;2022-10-31T14:13:14;97397.38;;;23.93;35.85
22755;BME280;11544;42.020;23.094;2022-10-31T14:15:51;97397.25;;;23.94;35.95
22755;BME280;11544;42.020;23.094;2022-10-31T14:18:51;97390.84;;;23.76;35.94
22755;BME280;11544;42.020;23.094;2022-10-31T14:23:49;97395.69;;;23.92;35.82
22755;BME280;11544;42.020;23.094;2022-10-31T14:28:59;97409.09;;;23.80;35.65
22755;BME280;11544;42.020;23.094;2022-10-31T14:33:52;97406.34;;;23.71;35.90
22755;BME280;11544;42.020;23.094;2022-10-31T14:36:26;97403.56;;;23.51;36.44
22755;BME280;11544;42.020;23.094;2022-10-31T14:39:08;97410.44;;;23.54;35.89
22755;BME280;11544;42.020;23.094;2022-10-31T14:42:05;97412.22;;;23.43;36.22
22755;BME280;11544;42.020;23.094;2022-10-31T14:47:42;97416.22;;;23.38;36.56
22755;BME280;11544;42.020;23.094;2022-10-31T14:52:49;97421.59;;;23.27;36.60
22755;BME280;11544;42.020;23.094;2022-10-31T14:55:16;97419.13;;;23.35;36.67
22755;BME280;11544;42.020;23.094;2022-10-31T14:57:54;97427.69;;;23.17;36.95
22755;BME280;11544;42.020;23.094;2022-10-31T15:00:23;97432.41;;;23.14;37.03
22755;BME280;11544;42.020;23.094;2022-10-31T15:02:59;97432.00;;;22.86;37.35
22755;BME280;11544;42.020;23.094;2022-10-31T15:05:29;97432.34;;;22.93;37.33
22755;BME280;11544;42.020;23.094;2022-10-31T15:07:58;97436.25;;;22.77;37.94
22755;BME280;11544;42.020;23.094;2022-10-31T15:10:29;97435.28;;;22.78;37.52
22755;BME280;11544;42.020;23.094;2022-10-31T15:13:18;97437.47;;;22.73;37.86
22755;BME280;11544;42.020;23.094;2022-10-31T15:15:44;97436.88;;;22.70;38.04
22755;BME280;11544;42.020;23.094;2022-10-31T15:18:20;97443.69;;;22.51;37.94
22755;BME280;11544;42.020;23.094;2022-10-31T15:20:47;97442.72;;;22.52;38.20
22755;BME280;11544;42.020;23.094;2022-10-31T15:23:40;97447.91;;;22.43;38.11
22755;BME280;11544;42.020;23.094;2022-10-31T15:26:06;97460.94;;;22.57;38.02
22755;BME280;11544;42.020;23.094;2022-10-31T15:28:34;97454.31;;;22.40;38.27
22755;BME280;11544;42.020;23.094;2022-10-31T15:31:01;97458.78;;;22.28;38.38
22755;BME280;11544;42.020;23.094;2022-10-31T15:33:38;97457.91;;;22.16;38.74
22755;BME280;11544;42.020;23.094;2022-10-31T15:36:05;97464.16;;;22.15;38.50
22755;BME280;11544;42.020;23.094;2022-10-31T15:38:30;97466.13;;;22.02;39.02
22755;BME280;11544;42.020;23.094;2022-10-31T15:41:05;97470.72;;;22.11;38.80
22755;BME280;11544;42.020;23.094;2022-10-31T15:43:46;97465.63;;;22.08;38.57
22755;BME280;11544;42.020;23.094;2022-10-31T15:46:13;97477.22;;;22.07;38.80
22755;BME280;11544;42.020;23.094;2022-10-31T15:48:39;97480.34;;;22.12;38.73
22755;BME280;11544;42.020;23.094;2022-10-31T15:51:09;97476.47;;;21.94;39.41
22755;BME280;11544;42.020;23.094;2022-10-31T15:53:41;97487.31;;;21.91;39.13
22755;BME280;11544;42.020;23.094;2022-10-31T15:56:11;97493.31;;;21.70;39.50
22755;BME280;11544;42.020;23.094;2022-10-31T15:58:47;97498.09;;;21.54;40.03
22755;BME280;11544;42.020;23.094;2022-10-31T16:01:28;97494.09;;;21.48;39.90
22755;BME280;11544;42.020;23.094;2022-10-31T16:06:27;97502.94;;;21.36;40.38
22755;BME280;11544;42.020;23.094;2022-10-31T16:08:53;97505.88;;;21.20;40.94